sensor_id;sensor_type;location;lat;lon;timestamp;P1;durP1;ratioP1;P2;durP2;ratioP2
26407;SDS011;14583;43.604;1.364;2022-11-20T00:01:05;7.97;;;3.05;;
26407;SDS011;14583;43.604;1.364;2022-11-20T00:03:35;7.30;;;2.85;;
26407;SDS011;14583;43.604;1.364;2022-11-20T00:06:04;3.75;;;2.58;;
26407;SDS011;14583;43.604;1.364;2022-11-20T00:08:32;9.52;;;2.80;;
26407;SDS011;14583;43.604;1.364;2022-11-20T00:11:02;5.65;;;2.50;;
26407;SDS011;14583;43.604;1.364;2022-11-20T00:13:31;4.78;;;2.30;;
26407;SDS011;14583;43.604;1.364;2022-11-20T00:15:58;5.40;;;2.00;;
26407;SDS011;14583;43.604;1.364;2022-11-20T00:18:25;7.13;;;2.55;;
26407;SDS011;14583;43.604;1.364;2022-11-20T00:20:51;3.85;;;2.35;;
26407;SDS011;14583;43.604;1.364;2022-11-20T00:23:16;4.80;;;2.30;;
26407;SDS011;14583;43.604;1.364;2022-11-20T00:25:42;5.40;;;2.60;;
26407;SDS011;14583;43.604;1.364;2022-11-20T00:28:08;4.60;;;2.38;;
26407;SDS011;14583;43.604;1.364;2022-11-20T00:30:33;6.05;;;3.00;;
26407;SDS011;14583;43.604;1.364;2022-11-20T00:32:59;6.72;;;3.03;;
26407;SDS011;14583;43.604;1.364;2022-11-20T00:35:25;4.60;;;3.10;;
26407;SDS011;14583;43.604;1.364;2022-11-20T00:37:50;3.88;;;2.90;;
26407;SDS011;14583;43.604;1.364;2022-11-20T00:40:16;6.72;;;2.67;;
26407;SDS011;14583;43.604;1.364;2022-11-20T00:42:42;7.78;;;3.28;;
26407;SDS011;14583;43.604;1.364;2022-11-20T00:45:07;8.73;;;3.40;;
26407;SDS011;14583;43.604;1.364;2022-11-20T00:47:33;8.63;;;2.95;;
26407;SDS011;14583;43.604;1.364;2022-11-20T00:49:59;4.40;;;3.05;;
26407;SDS011;14583;43.604;1.364;2022-11-20T00:52:24;6.78;;;2.67;;
26407;SDS011;14583;43.604;1.364;2022-11-20T00:54:50;6.35;;;2.78;;
26407;SDS011;14583;43.604;1.364;2022-11-20T00:57:16;5.38;;;3.10;;
26407;SDS011;14583;43.604;1.364;2022-11-20T00:59:41;6.85;;;3.30;;
26407;SDS011;14583;43.604;1.364;2022-11-20T01:02:07;7.55;;;3.55;;
26407;SDS011;14583;43.604;1.364;2022-11-20T01:04:33;5.95;;;3.00;;
26407;SDS011;14583;43.604;1.364;2022-11-20T01:06:58;7.07;;;3.88;;
26407;SDS011;14583;43.604;1.364;2022-11-20T01:09:24;5.57;;;3.55;;
26407;SDS011;14583;43.604;1.364;2022-11-20T01:11:50;8.52;;;3.65;;
26407;SDS011;14583;43.604;1.364;2022-11-20T01:14:16;9.23;;;3.33;;
26407;SDS011;14583;43.604;1.364;2022-11-20T01:16:45;5.65;;;3.45;;
26407;SDS011;14583;43.604;1.364;2022-11-20T01:19:14;4.18;;;3.35;;
26407;SDS011;14583;43.604;1.364;2022-11-20T01:21:43;8.75;;;4.47;;
26407;SDS011;14583;43.604;1.364;2022-11-20T01:24:11;6.35;;;3.92;;
26407;SDS011;14583;43.604;1.364;2022-11-20T01:26:38;8.05;;;4.70;;
26407;SDS011;14583;43.604;1.364;2022-11-20T01:29:06;9.57;;;5.15;;
26407;SDS011;14583;43.604;1.364;2022-11-20T01:31:35;8.75;;;5.38;;
26407;SDS011;14583;43.604;1.364;2022-11-20T01:34:03;6.68;;;5.68;;
26407;SDS011;14583;43.604;1.364;2022-11-20T01:36:31;9.18;;;6.68;;
26407;SDS011;14583;43.604;1.364;2022-11-20T01:38:59;8.73;;;7.15;;
26407;SDS011;14583;43.604;1.364;2022-11-20T01:41:29;9.57;;;7.20;;
26407;SDS011;14583;43.604;1.364;2022-11-20T01:44:15;8.45;;;6.53;;
26407;SDS011;14583;43.604;1.364;2022-11-20T01:46:54;8.68;;;5.45;;
26407;SDS011;14583;43.604;1.364;2022-11-20T01:49:31;8.02;;;4.13;;
26407;SDS011;14583;43.604;1.364;2022-11-20T01:52:22;7.95;;;3.17;;
26407;SDS011;14583;43.604;1.364;2022-11-20T01:54:59;5.00;;;2.38;;
26407;SDS011;14583;43.604;1.364;2022-11-20T01:57:32;3.08;;;2.50;;
26407;SDS011;14583;43.604;1.364;2022-11-20T02:00:00;4.32;;;2.60;;
26407;SDS011;14583;43.604;1.364;2022-11-20T02:02:29;3.45;;;2.60;;
26407;SDS011;14583;43.604;1.364;2022-11-20T02:04:56;7.45;;;2.70;;
26407;SDS011;14583;43.604;1.364;2022-11-20T02:07:29;7.00;;;3.00;;
26407;SDS011;14583;43.604;1.364;2022-11-20T02:09:55;11.20;;;3.85;;
26407;SDS011;14583;43.604;1.364;2022-11-20T02:12:21;5.50;;;3.45;;
26407;SDS011;14583;43.604;1.364;2022-11-20T02:15:05;4.32;;;3.00;;
26407;SDS011;14583;43.604;1.364;2022-11-20T02:17:31;7.30;;;3.58;;
26407;SDS011;14583;43.604;1.364;2022-11-20T02:19:56;5.72;;;4.10;;
26407;SDS011;14583;43.604;1.364;2022-11-20T02:22:33;6.70;;;4.25;;
26407;SDS011;14583;43.604;1.364;2022-11-20T02:25:28;6.82;;;4.75;;
26407;SDS011;14583;43.604;1.364;2022-11-20T02:27:55;7.43;;;4.38;;
26407;SDS011;14583;43.604;1.364;2022-11-20T02:30:21;8.20;;;4.88;;
26407;SDS011;14583;43.604;1.364;2022-11-20T02:32:47;6.95;;;4.90;;
26407;SDS011;14583;43.604;1.364;2022-11-20T02:37:44;10.63;;;4.93;;
26407;SDS011;14583;43.604;1.364;2022-11-20T02:40:13;9.65;;;5.43;;
26407;SDS011;14583;43.604;1.364;2022-11-20T02:42:39;10.25;;;4.80;;
26407;SDS011;14583;43.604;1.364;2022-11-20T02:45:05;8.05;;;4.85;;
26407;SDS011;14583;43.604;1.364;2022-11-20T02:47:31;7.38;;;4.95;;
26407;SDS011;14583;43.604;1.364;2022-11-20T02:49:57;7.55;;;4.30;;
26407;SDS011;14583;43.604;1.364;2022-11-20T02:52:23;7.28;;;4.25;;
26407;SDS011;14583;43.604;1.364;2022-11-20T02:54:50;5.38;;;4.30;;
26407;SDS011;14583;43.604;1.364;2022-11-20T02:57:15;6.32;;;4.43;;
26407;SDS011;14583;43.604;1.364;2022-11-20T02:59:41;7.40;;;4.32;;
26407;SDS011;14583;43.604;1.364;2022-11-20T03:02:07;7.15;;;4.45;;
26407;SDS011;14583;43.604;1.364;2022-11-20T03:04:33;8.30;;;4.28;;
26407;SDS011;14583;43.604;1.364;2022-11-20T03:06:58;8.63;;;3.97;;
26407;SDS011;14583;43.604;1.364;2022-11-20T03:09:24;7.97;;;4.05;;
26407;SDS011;14583;43.604;1.364;2022-11-20T03:11:50;9.25;;;4.72;;
26407;SDS011;14583;43.604;1.364;2022-11-20T03:14:16;7.68;;;4.22;;
26407;SDS011;14583;43.604;1.364;2022-11-20T03:16:41;9.18;;;4.20;;
26407;SDS011;14583;43.604;1.364;2022-11-20T03:19:07;4.93;;;3.90;;
26407;SDS011;14583;43.604;1.364;2022-11-20T03:21:33;7.57;;;3.55;;
26407;SDS011;14583;43.604;1.364;2022-11-20T03:23:59;6.80;;;3.85;;
26407;SDS011;14583;43.604;1.364;2022-11-20T03:26:26;5.38;;;3.70;;
26407;SDS011;14583;43.604;1.364;2022-11-20T03:28:54;6.82;;;3.78;;
26407;SDS011;14583;43.604;1.364;2022-11-20T03:31:22;6.03;;;3.85;;
26407;SDS011;14583;43.604;1.364;2022-11-20T03:33:49;8.48;;;4.18;;
26407;SDS011;14583;43.604;1.364;2022-11-20T03:36:16;9.88;;;3.72;;
26407;SDS011;14583;43.604;1.364;2022-11-20T03:38:43;7.00;;;4.18;;
26407;SDS011;14583;43.604;1.364;2022-11-20T03:41:10;9.85;;;3.90;;
26407;SDS011;14583;43.604;1.364;2022-11-20T03:43:40;7.25;;;3.70;;
26407;SDS011;14583;43.604;1.364;2022-11-20T03:46:06;7.60;;;4.13;;
26407;SDS011;14583;43.604;1.364;2022-11-20T03:48:32;9.50;;;4.40;;
26407;SDS011;14583;43.604;1.364;2022-11-20T03:53:34;7.65;;;4.00;;
26407;SDS011;14583;43.604;1.364;2022-11-20T03:56:00;6.18;;;4.00;;
26407;SDS011;14583;43.604;1.364;2022-11-20T03:58:26;7.07;;;3.97;;
26407;SDS011;14583;43.604;1.364;2022-11-20T04:00:51;9.77;;;4.38;;
26407;SDS011;14583;43.604;1.364;2022-11-20T04:03:17;6.80;;;4.10;;
26407;SDS011;14583;43.604;1.364;2022-11-20T04:05:43;6.63;;;3.92;;
26407;SDS011;14583;43.604;1.364;2022-11-20T04:08:08;8.48;;;4.20;;
26407;SDS011;14583;43.604;1.364;2022-11-20T04:10:34;8.00;;;3.92;;
26407;SDS011;14583;43.604;1.364;2022-11-20T04:13:00;8.40;;;4.40;;
26407;SDS011;14583;43.604;1.364;2022-11-20T04:15:26;5.45;;;3.85;;
26407;SDS011;14583;43.604;1.364;2022-11-20T04:17:51;5.60;;;4.40;;
26407;SDS011;14583;43.604;1.364;2022-11-20T04:20:18;6.88;;;4.38;;
26407;SDS011;14583;43.604;1.364;2022-11-20T04:22:44;7.05;;;4.47;;
26407;SDS011;14583;43.604;1.364;2022-11-20T04:25:10;6.07;;;4.68;;
26407;SDS011;14583;43.604;1.364;2022-11-20T04:27:35;9.02;;;4.80;;
26407;SDS011;14583;43.604;1.364;2022-11-20T04:30:01;7.70;;;4.38;;
26407;SDS011;14583;43.604;1.364;2022-11-20T04:32:27;6.40;;;4.68;;
26407;SDS011;14583;43.604;1.364;2022-11-20T04:34:53;8.30;;;4.28;;
26407;SDS011;14583;43.604;1.364;2022-11-20T04:37:18;6.80;;;4.40;;
26407;SDS011;14583;43.604;1.364;2022-11-20T04:39:44;6.53;;;4.82;;
26407;SDS011;14583;43.604;1.364;2022-11-20T04:42:10;7.15;;;4.93;;
26407;SDS011;14583;43.604;1.364;2022-11-20T04:44:54;7.55;;;5.15;;
26407;SDS011;14583;43.604;1.364;2022-11-20T04:47:20;9.35;;;4.88;;
26407;SDS011;14583;43.604;1.364;2022-11-20T04:49:46;8.00;;;5.07;;
26407;SDS011;14583;43.604;1.364;2022-11-20T04:52:11;7.05;;;5.15;;
26407;SDS011;14583;43.604;1.364;2022-11-20T04:54:37;5.25;;;4.22;;
26407;SDS011;14583;43.604;1.364;2022-11-20T04:57:03;9.82;;;5.40;;
26407;SDS011;14583;43.604;1.364;2022-11-20T04:59:29;9.80;;;4.95;;
26407;SDS011;14583;43.604;1.364;2022-11-20T05:01:55;6.10;;;4.63;;
26407;SDS011;14583;43.604;1.364;2022-11-20T05:04:20;6.43;;;4.60;;
26407;SDS011;14583;43.604;1.364;2022-11-20T05:06:46;5.78;;;4.43;;
26407;SDS011;14583;43.604;1.364;2022-11-20T05:09:12;5.57;;;4.50;;
26407;SDS011;14583;43.604;1.364;2022-11-20T05:11:38;5.80;;;4.40;;
26407;SDS011;14583;43.604;1.364;2022-11-20T05:14:03;7.50;;;5.00;;
26407;SDS011;14583;43.604;1.364;2022-11-20T05:16:29;6.10;;;4.50;;
26407;SDS011;14583;43.604;1.364;2022-11-20T05:18:55;8.10;;;4.45;;
26407;SDS011;14583;43.604;1.364;2022-11-20T05:21:21;6.82;;;5.15;;
26407;SDS011;14583;43.604;1.364;2022-11-20T05:23:47;5.78;;;4.47;;
26407;SDS011;14583;43.604;1.364;2022-11-20T05:26:13;12.38;;;5.05;;
26407;SDS011;14583;43.604;1.364;2022-11-20T05:28:41;8.95;;;4.80;;
26407;SDS011;14583;43.604;1.364;2022-11-20T05:31:07;5.85;;;4.80;;
26407;SDS011;14583;43.604;1.364;2022-11-20T05:33:35;6.28;;;5.18;;
26407;SDS011;14583;43.604;1.364;2022-11-20T05:36:02;8.40;;;4.82;;
26407;SDS011;14583;43.604;1.364;2022-11-20T05:38:28;7.90;;;5.50;;
26407;SDS011;14583;43.604;1.364;2022-11-20T05:40:54;8.48;;;5.13;;
26407;SDS011;14583;43.604;1.364;2022-11-20T05:43:19;5.30;;;4.70;;
26407;SDS011;14583;43.604;1.364;2022-11-20T05:45:54;6.43;;;4.97;;
26407;SDS011;14583;43.604;1.364;2022-11-20T05:48:20;5.30;;;4.65;;
26407;SDS011;14583;43.604;1.364;2022-11-20T05:50:46;7.07;;;4.97;;
26407;SDS011;14583;43.604;1.364;2022-11-20T05:53:13;8.07;;;5.13;;
26407;SDS011;14583;43.604;1.364;2022-11-20T05:55:38;7.97;;;4.82;;
26407;SDS011;14583;43.604;1.364;2022-11-20T05:58:04;12.73;;;5.53;;
26407;SDS011;14583;43.604;1.364;2022-11-20T06:00:30;9.40;;;5.28;;
26407;SDS011;14583;43.604;1.364;2022-11-20T06:02:55;5.47;;;4.70;;
26407;SDS011;14583;43.604;1.364;2022-11-20T06:05:21;8.45;;;4.50;;
26407;SDS011;14583;43.604;1.364;2022-11-20T06:07:47;6.13;;;4.38;;
26407;SDS011;14583;43.604;1.364;2022-11-20T06:10:12;7.05;;;4.55;;
26407;SDS011;14583;43.604;1.364;2022-11-20T06:12:38;9.85;;;4.97;;
26407;SDS011;14583;43.604;1.364;2022-11-20T06:15:04;7.38;;;5.35;;
26407;SDS011;14583;43.604;1.364;2022-11-20T06:17:31;8.70;;;4.80;;
26407;SDS011;14583;43.604;1.364;2022-11-20T06:19:56;7.30;;;4.20;;
26407;SDS011;14583;43.604;1.364;2022-11-20T06:22:22;6.53;;;4.35;;
26407;SDS011;14583;43.604;1.364;2022-11-20T06:24:48;5.78;;;4.05;;
26407;SDS011;14583;43.604;1.364;2022-11-20T06:27:14;4.80;;;4.30;;
26407;SDS011;14583;43.604;1.364;2022-11-20T06:29:39;7.63;;;4.28;;
26407;SDS011;14583;43.604;1.364;2022-11-20T06:32:05;10.10;;;4.30;;
26407;SDS011;14583;43.604;1.364;2022-11-20T06:34:31;6.60;;;4.07;;
26407;SDS011;14583;43.604;1.364;2022-11-20T06:36:56;10.75;;;4.35;;
26407;SDS011;14583;43.604;1.364;2022-11-20T06:39:22;9.20;;;5.07;;
26407;SDS011;14583;43.604;1.364;2022-11-20T06:41:48;8.25;;;4.85;;
26407;SDS011;14583;43.604;1.364;2022-11-20T06:44:13;11.48;;;4.68;;
26407;SDS011;14583;43.604;1.364;2022-11-20T06:46:39;8.68;;;4.60;;
26407;SDS011;14583;43.604;1.364;2022-11-20T06:49:05;7.18;;;4.45;;
26407;SDS011;14583;43.604;1.364;2022-11-20T06:51:30;7.22;;;4.88;;
26407;SDS011;14583;43.604;1.364;2022-11-20T06:53:56;5.43;;;4.65;;
26407;SDS011;14583;43.604;1.364;2022-11-20T06:56:22;7.35;;;5.07;;
26407;SDS011;14583;43.604;1.364;2022-11-20T06:58:48;6.80;;;4.88;;
26407;SDS011;14583;43.604;1.364;2022-11-20T07:01:14;10.57;;;6.10;;
26407;SDS011;14583;43.604;1.364;2022-11-20T07:03:40;8.45;;;5.70;;
26407;SDS011;14583;43.604;1.364;2022-11-20T07:06:07;9.13;;;5.72;;
26407;SDS011;14583;43.604;1.364;2022-11-20T07:08:33;10.25;;;6.20;;
26407;SDS011;14583;43.604;1.364;2022-11-20T07:10:59;9.30;;;5.90;;
26407;SDS011;14583;43.604;1.364;2022-11-20T07:13:27;8.40;;;5.72;;
26407;SDS011;14583;43.604;1.364;2022-11-20T07:15:53;11.02;;;6.30;;
26407;SDS011;14583;43.604;1.364;2022-11-20T07:18:19;11.07;;;6.55;;
26407;SDS011;14583;43.604;1.364;2022-11-20T07:20:44;11.23;;;5.95;;
26407;SDS011;14583;43.604;1.364;2022-11-20T07:23:10;11.70;;;6.97;;
26407;SDS011;14583;43.604;1.364;2022-11-20T07:25:36;13.05;;;6.65;;
26407;SDS011;14583;43.604;1.364;2022-11-20T07:28:02;14.18;;;7.68;;
26407;SDS011;14583;43.604;1.364;2022-11-20T07:30:28;14.88;;;7.20;;
26407;SDS011;14583;43.604;1.364;2022-11-20T07:32:55;12.80;;;8.18;;
26407;SDS011;14583;43.604;1.364;2022-11-20T07:35:21;13.40;;;7.65;;
26407;SDS011;14583;43.604;1.364;2022-11-20T07:37:48;14.00;;;6.90;;
26407;SDS011;14583;43.604;1.364;2022-11-20T07:40:14;11.27;;;7.38;;
26407;SDS011;14583;43.604;1.364;2022-11-20T07:42:51;11.48;;;6.90;;
26407;SDS011;14583;43.604;1.364;2022-11-20T07:45:18;13.77;;;7.20;;
26407;SDS011;14583;43.604;1.364;2022-11-20T07:47:45;11.52;;;8.07;;
26407;SDS011;14583;43.604;1.364;2022-11-20T07:50:11;13.55;;;7.65;;
26407;SDS011;14583;43.604;1.364;2022-11-20T07:52:37;13.50;;;7.38;;
26407;SDS011;14583;43.604;1.364;2022-11-20T07:55:03;11.88;;;7.22;;
26407;SDS011;14583;43.604;1.364;2022-11-20T07:57:30;10.80;;;7.22;;
26407;SDS011;14583;43.604;1.364;2022-11-20T07:59:55;13.60;;;7.10;;
26407;SDS011;14583;43.604;1.364;2022-11-20T08:02:21;13.00;;;7.25;;
26407;SDS011;14583;43.604;1.364;2022-11-20T08:04:47;10.60;;;7.25;;
26407;SDS011;14583;43.604;1.364;2022-11-20T08:07:13;11.70;;;6.72;;
26407;SDS011;14583;43.604;1.364;2022-11-20T08:09:39;19.58;;;7.30;;
26407;SDS011;14583;43.604;1.364;2022-11-20T08:12:04;11.75;;;7.22;;
26407;SDS011;14583;43.604;1.364;2022-11-20T08:14:49;15.32;;;7.47;;
26407;SDS011;14583;43.604;1.364;2022-11-20T08:17:14;10.30;;;6.43;;
26407;SDS011;14583;43.604;1.364;2022-11-20T08:19:40;10.20;;;7.20;;
26407;SDS011;14583;43.604;1.364;2022-11-20T08:22:06;16.70;;;7.03;;
26407;SDS011;14583;43.604;1.364;2022-11-20T08:24:32;14.82;;;6.93;;
26407;SDS011;14583;43.604;1.364;2022-11-20T08:26:58;12.32;;;7.57;;
26407;SDS011;14583;43.604;1.364;2022-11-20T08:29:26;10.25;;;6.00;;
26407;SDS011;14583;43.604;1.364;2022-11-20T08:31:52;13.27;;;7.15;;
26407;SDS011;14583;43.604;1.364;2022-11-20T08:34:18;13.27;;;6.63;;
26407;SDS011;14583;43.604;1.364;2022-11-20T08:36:43;12.40;;;7.40;;
26407;SDS011;14583;43.604;1.364;2022-11-20T08:39:12;13.82;;;7.32;;
26407;SDS011;14583;43.604;1.364;2022-11-20T08:41:38;13.23;;;7.18;;
26407;SDS011;14583;43.604;1.364;2022-11-20T08:44:05;11.40;;;6.88;;
26407;SDS011;14583;43.604;1.364;2022-11-20T08:46:33;13.50;;;6.95;;
26407;SDS011;14583;43.604;1.364;2022-11-20T08:49:04;13.48;;;7.05;;
26407;SDS011;14583;43.604;1.364;2022-11-20T08:51:32;9.38;;;6.00;;
26407;SDS011;14583;43.604;1.364;2022-11-20T08:53:57;10.57;;;5.82;;
26407;SDS011;14583;43.604;1.364;2022-11-20T08:56:23;8.88;;;5.40;;
26407;SDS011;14583;43.604;1.364;2022-11-20T08:58:49;8.57;;;5.45;;
26407;SDS011;14583;43.604;1.364;2022-11-20T09:01:17;11.20;;;5.63;;
26407;SDS011;14583;43.604;1.364;2022-11-20T09:03:46;10.05;;;5.88;;
26407;SDS011;14583;43.604;1.364;2022-11-20T09:06:12;8.85;;;5.07;;
26407;SDS011;14583;43.604;1.364;2022-11-20T09:08:38;9.18;;;4.82;;
26407;SDS011;14583;43.604;1.364;2022-11-20T09:11:05;8.85;;;5.72;;
26407;SDS011;14583;43.604;1.364;2022-11-20T09:13:31;6.53;;;4.57;;
26407;SDS011;14583;43.604;1.364;2022-11-20T09:16:08;10.38;;;5.45;;
26407;SDS011;14583;43.604;1.364;2022-11-20T09:18:34;9.35;;;5.47;;
26407;SDS011;14583;43.604;1.364;2022-11-20T09:21:02;9.18;;;5.20;;
26407;SDS011;14583;43.604;1.364;2022-11-20T09:23:34;11.15;;;5.50;;
26407;SDS011;14583;43.604;1.364;2022-11-20T09:26:04;10.13;;;5.10;;
26407;SDS011;14583;43.604;1.364;2022-11-20T09:28:37;10.32;;;5.13;;
26407;SDS011;14583;43.604;1.364;2022-11-20T09:31:16;8.63;;;5.60;;
26407;SDS011;14583;43.604;1.364;2022-11-20T09:33:46;9.35;;;5.28;;
26407;SDS011;14583;43.604;1.364;2022-11-20T09:36:12;14.88;;;6.32;;
26407;SDS011;14583;43.604;1.364;2022-11-20T09:38:38;10.02;;;6.25;;
26407;SDS011;14583;43.604;1.364;2022-11-20T09:41:04;10.57;;;6.85;;
26407;SDS011;14583;43.604;1.364;2022-11-20T09:43:41;7.13;;;5.18;;
26407;SDS011;14583;43.604;1.364;2022-11-20T09:46:19;8.15;;;5.65;;
26407;SDS011;14583;43.604;1.364;2022-11-20T09:49:56;10.32;;;5.13;;
26407;SDS011;14583;43.604;1.364;2022-11-20T09:55:08;10.02;;;5.03;;
26407;SDS011;14583;43.604;1.364;2022-11-20T09:57:37;9.75;;;5.72;;
26407;SDS011;14583;43.604;1.364;2022-11-20T10:00:09;7.68;;;4.50;;
26407;SDS011;14583;43.604;1.364;2022-11-20T10:11:19;9.85;;;5.20;;
26407;SDS011;14583;43.604;1.364;2022-11-20T10:14:00;9.50;;;4.45;;
26407;SDS011;14583;43.604;1.364;2022-11-20T10:16:48;11.63;;;5.35;;
26407;SDS011;14583;43.604;1.364;2022-11-20T10:19:30;7.80;;;4.55;;
26407;SDS011;14583;43.604;1.364;2022-11-20T10:25:40;10.15;;;4.82;;
26407;SDS011;14583;43.604;1.364;2022-11-20T10:34:35;7.22;;;4.72;;
26407;SDS011;14583;43.604;1.364;2022-11-20T10:40:02;5.40;;;4.15;;
26407;SDS011;14583;43.604;1.364;2022-11-20T10:42:31;7.15;;;4.45;;
26407;SDS011;14583;43.604;1.364;2022-11-20T10:45:13;6.68;;;4.45;;
26407;SDS011;14583;43.604;1.364;2022-11-20T10:47:40;5.63;;;4.00;;
26407;SDS011;14583;43.604;1.364;2022-11-20T10:50:09;14.00;;;6.97;;
26407;SDS011;14583;43.604;1.364;2022-11-20T10:57:53;12.23;;;5.07;;
26407;SDS011;14583;43.604;1.364;2022-11-20T11:00:22;9.52;;;4.40;;
26407;SDS011;14583;43.604;1.364;2022-11-20T11:02:49;6.40;;;4.40;;
26407;SDS011;14583;43.604;1.364;2022-11-20T11:07:53;6.80;;;4.07;;
26407;SDS011;14583;43.604;1.364;2022-11-20T11:10:25;7.65;;;4.80;;
26407;SDS011;14583;43.604;1.364;2022-11-20T11:12:58;7.95;;;4.65;;
26407;SDS011;14583;43.604;1.364;2022-11-20T11:15:28;7.35;;;4.20;;
26407;SDS011;14583;43.604;1.364;2022-11-20T11:18:07;10.15;;;4.30;;
26407;SDS011;14583;43.604;1.364;2022-11-20T11:20:35;9.95;;;4.15;;
26407;SDS011;14583;43.604;1.364;2022-11-20T11:23:01;7.50;;;4.25;;
26407;SDS011;14583;43.604;1.364;2022-11-20T11:25:36;7.25;;;3.60;;
26407;SDS011;14583;43.604;1.364;2022-11-20T11:28:04;5.85;;;3.85;;
26407;SDS011;14583;43.604;1.364;2022-11-20T11:30:45;6.47;;;4.25;;
26407;SDS011;14583;43.604;1.364;2022-11-20T11:36:16;8.25;;;4.28;;
26407;SDS011;14583;43.604;1.364;2022-11-20T11:38:48;8.63;;;3.88;;
26407;SDS011;14583;43.604;1.364;2022-11-20T11:41:20;11.75;;;4.13;;
26407;SDS011;14583;43.604;1.364;2022-11-20T11:44:14;8.40;;;4.30;;
26407;SDS011;14583;43.604;1.364;2022-11-20T11:47:10;6.93;;;3.90;;
26407;SDS011;14583;43.604;1.364;2022-11-20T11:49:46;7.13;;;3.97;;
26407;SDS011;14583;43.604;1.364;2022-11-20T11:52:13;7.28;;;4.05;;
26407;SDS011;14583;43.604;1.364;2022-11-20T11:54:59;7.40;;;3.75;;
26407;SDS011;14583;43.604;1.364;2022-11-20T11:57:45;5.40;;;3.60;;
26407;SDS011;14583;43.604;1.364;2022-11-20T12:00:19;6.53;;;3.88;;
26407;SDS011;14583;43.604;1.364;2022-11-20T12:05:23;9.30;;;4.18;;
26407;SDS011;14583;43.604;1.364;2022-11-20T12:16:13;9.00;;;4.00;;
26407;SDS011;14583;43.604;1.364;2022-11-20T12:18:42;9.57;;;4.68;;
26407;SDS011;14583;43.604;1.364;2022-11-20T12:21:17;8.45;;;4.55;;
26407;SDS011;14583;43.604;1.364;2022-11-20T12:43:18;8.32;;;5.00;;
26407;SDS011;14583;43.604;1.364;2022-11-20T12:46:32;10.35;;;4.95;;
26407;SDS011;14583;43.604;1.364;2022-11-20T12:57:31;4.32;;;1.83;;
26407;SDS011;14583;43.604;1.364;2022-11-20T13:00:07;1.77;;;1.08;;
26407;SDS011;14583;43.604;1.364;2022-11-20T13:10:49;2.67;;;1.85;;
26407;SDS011;14583;43.604;1.364;2022-11-20T13:15:53;2.97;;;1.63;;
26407;SDS011;14583;43.604;1.364;2022-11-20T13:18:26;6.22;;;4.35;;
26407;SDS011;14583;43.604;1.364;2022-11-20T13:20:53;2.83;;;1.77;;
26407;SDS011;14583;43.604;1.364;2022-11-20T13:23:23;4.00;;;1.92;;
26407;SDS011;14583;43.604;1.364;2022-11-20T13:25:50;2.90;;;1.85;;
26407;SDS011;14583;43.604;1.364;2022-11-20T13:28:27;3.38;;;2.13;;
26407;SDS011;14583;43.604;1.364;2022-11-20T13:30:55;4.32;;;2.20;;
26407;SDS011;14583;43.604;1.364;2022-11-20T13:33:30;3.65;;;2.10;;
26407;SDS011;14583;43.604;1.364;2022-11-20T13:35:58;3.53;;;2.28;;
26407;SDS011;14583;43.604;1.364;2022-11-20T13:38:52;4.90;;;2.30;;
26407;SDS011;14583;43.604;1.364;2022-11-20T13:41:26;2.95;;;2.30;;
26407;SDS011;14583;43.604;1.364;2022-11-20T13:46:19;6.18;;;2.80;;
26407;SDS011;14583;43.604;1.364;2022-11-20T13:48:49;7.80;;;2.97;;
26407;SDS011;14583;43.604;1.364;2022-11-20T14:02:26;9.88;;;3.30;;
26407;SDS011;14583;43.604;1.364;2022-11-20T14:04:54;6.75;;;3.10;;
26407;SDS011;14583;43.604;1.364;2022-11-20T14:07:25;7.47;;;3.95;;
26407;SDS011;14583;43.604;1.364;2022-11-20T14:09:57;7.40;;;3.35;;
26407;SDS011;14583;43.604;1.364;2022-11-20T14:12:33;6.90;;;3.10;;
26407;SDS011;14583;43.604;1.364;2022-11-20T14:14:59;10.75;;;3.38;;
26407;SDS011;14583;43.604;1.364;2022-11-20T14:19:54;8.88;;;3.28;;
26407;SDS011;14583;43.604;1.364;2022-11-20T14:22:24;12.02;;;3.60;;
26407;SDS011;14583;43.604;1.364;2022-11-20T14:25:04;14.02;;;3.17;;
26407;SDS011;14583;43.604;1.364;2022-11-20T14:27:41;13.32;;;3.30;;
26407;SDS011;14583;43.604;1.364;2022-11-20T14:30:15;16.77;;;3.47;;
26407;SDS011;14583;43.604;1.364;2022-11-20T14:32:46;10.48;;;3.45;;
26407;SDS011;14583;43.604;1.364;2022-11-20T14:35:14;13.75;;;3.75;;
26407;SDS011;14583;43.604;1.364;2022-11-20T14:37:45;10.68;;;3.10;;
26407;SDS011;14583;43.604;1.364;2022-11-20T14:40:30;9.80;;;3.30;;
26407;SDS011;14583;43.604;1.364;2022-11-20T14:43:00;18.08;;;3.78;;
26407;SDS011;14583;43.604;1.364;2022-11-20T14:45:26;15.68;;;3.35;;
26407;SDS011;14583;43.604;1.364;2022-11-20T14:47:53;16.75;;;3.25;;
26407;SDS011;14583;43.604;1.364;2022-11-20T14:50:22;19.13;;;4.05;;
26407;SDS011;14583;43.604;1.364;2022-11-20T14:52:51;17.00;;;3.45;;
26407;SDS011;14583;43.604;1.364;2022-11-20T14:55:26;14.43;;;3.22;;
26407;SDS011;14583;43.604;1.364;2022-11-20T14:58:01;23.55;;;3.58;;
26407;SDS011;14583;43.604;1.364;2022-11-20T15:00:29;19.92;;;3.67;;
26407;SDS011;14583;43.604;1.364;2022-11-20T15:02:56;20.58;;;3.78;;
26407;SDS011;14583;43.604;1.364;2022-11-20T15:05:26;18.65;;;4.03;;
26407;SDS011;14583;43.604;1.364;2022-11-20T15:08:13;14.82;;;3.40;;
26407;SDS011;14583;43.604;1.364;2022-11-20T15:10:44;28.02;;;4.10;;
26407;SDS011;14583;43.604;1.364;2022-11-20T15:13:24;22.58;;;4.20;;
26407;SDS011;14583;43.604;1.364;2022-11-20T15:16:01;25.63;;;4.63;;
26407;SDS011;14583;43.604;1.364;2022-11-20T15:21:02;24.58;;;4.15;;
26407;SDS011;14583;43.604;1.364;2022-11-20T15:23:31;30.95;;;4.90;;
26407;SDS011;14583;43.604;1.364;2022-11-20T15:25:57;19.10;;;4.18;;
26407;SDS011;14583;43.604;1.364;2022-11-20T15:28:27;23.50;;;4.78;;
26407;SDS011;14583;43.604;1.364;2022-11-20T15:31:02;23.67;;;4.07;;
26407;SDS011;14583;43.604;1.364;2022-11-20T15:33:29;30.13;;;4.53;;
26407;SDS011;14583;43.604;1.364;2022-11-20T15:35:56;18.15;;;4.15;;
26407;SDS011;14583;43.604;1.364;2022-11-20T15:38:22;22.90;;;4.20;;
26407;SDS011;14583;43.604;1.364;2022-11-20T15:40:48;19.92;;;4.03;;
26407;SDS011;14583;43.604;1.364;2022-11-20T15:43:14;21.05;;;4.95;;
26407;SDS011;14583;43.604;1.364;2022-11-20T15:53:34;29.63;;;5.68;;
26407;SDS011;14583;43.604;1.364;2022-11-20T15:56:00;25.55;;;5.57;;
26407;SDS011;14583;43.604;1.364;2022-11-20T15:58:27;194.73;;;11.23;;
26407;SDS011;14583;43.604;1.364;2022-11-20T16:00:52;73.40;;;6.28;;
26407;SDS011;14583;43.604;1.364;2022-11-20T16:03:18;28.15;;;4.95;;
26407;SDS011;14583;43.604;1.364;2022-11-20T16:05:45;17.42;;;4.40;;
26407;SDS011;14583;43.604;1.364;2022-11-20T16:08:11;21.83;;;5.32;;
26407;SDS011;14583;43.604;1.364;2022-11-20T16:10:37;25.67;;;5.35;;
26407;SDS011;14583;43.604;1.364;2022-11-20T16:13:03;19.48;;;5.03;;
26407;SDS011;14583;43.604;1.364;2022-11-20T16:15:50;25.13;;;5.35;;
26407;SDS011;14583;43.604;1.364;2022-11-20T16:18:19;27.58;;;5.65;;
26407;SDS011;14583;43.604;1.364;2022-11-20T16:20:46;22.10;;;5.70;;
26407;SDS011;14583;43.604;1.364;2022-11-20T16:23:14;25.73;;;5.25;;
26407;SDS011;14583;43.604;1.364;2022-11-20T16:25:40;28.70;;;5.93;;
26407;SDS011;14583;43.604;1.364;2022-11-20T16:28:07;27.42;;;5.07;;
26407;SDS011;14583;43.604;1.364;2022-11-20T16:30:33;30.92;;;5.13;;
26407;SDS011;14583;43.604;1.364;2022-11-20T16:32:59;24.45;;;5.13;;
26407;SDS011;14583;43.604;1.364;2022-11-20T16:35:26;17.30;;;4.28;;
26407;SDS011;14583;43.604;1.364;2022-11-20T16:37:53;18.00;;;4.20;;
26407;SDS011;14583;43.604;1.364;2022-11-20T16:40:20;27.23;;;4.93;;
26407;SDS011;14583;43.604;1.364;2022-11-20T16:42:46;18.27;;;4.07;;
26407;SDS011;14583;43.604;1.364;2022-11-20T16:45:12;18.92;;;4.20;;
26407;SDS011;14583;43.604;1.364;2022-11-20T16:47:39;17.23;;;4.38;;
26407;SDS011;14583;43.604;1.364;2022-11-20T16:50:05;20.70;;;4.15;;